Severn, NC (27877)

2:33 PM EDT on July 24, 2014 (GMT -0400)
Conway - 35S (KNCCONWA4) Elev 105 ft | 36.43 °N, 77.23 °W | Change Station

Current weather conditions updated 9 seconds ago

Partly Cloudy
Partly Cloudy
80.3 °F
Feels Like 84 °F
N
1.0
Wind Variable Wind from ESE
Gusts 1.0 mph

Today is forecast to be Cooler than yesterday. Thunderstorms.

Today
High -- | Low -- °F
--% Chance of Precip.
Yesterday
High -- | Low -- °F
Precip. -- in
6:08 AM 8:21 PM
Waning Crescent, 4% visible
Pressure 29.89 in
Visibility 10.0 miles
Clouds Clear
Heat Index 84 °F
Dew Point 70 °F
Humidity 72%
Rainfall 0.02 in
Snow Depth Not available.
UV 12 out of 12
Pollen 3.90 out of 12
Air Quality Not available.
Flu Activity Not available.
METAR KASJ 241755Z AUTO 00000KT 10SM CLR 26/21 A2989 RMK AO2 T02630206 10267 20235

More Conditions Fewer Conditions

Pressure 29.89 in
Visibility 10.0 miles
Clouds Clear
Heat Index 84 °F
Dew Point 70 °F
Humidity 72%
Rainfall 0.02 in
Snow Depth Not available.
UV 12 out of 12
Pollen 3.90 out of 12
Air Quality Not available.
Flu Activity Not available.
METAR KASJ 241755Z AUTO 00000KT 10SM CLR 26/21 A2989 RMK AO2 T02630206 10267 20235

More Conditions Fewer Conditions

10-Day Weather Forecast

Almanac

Astronomy

Jul. 24, 2014 Rise Set
Actual Time 6:08 AM EDT 8:21 PM EDT
Civil Twilight 5:39 AM EDT 8:50 PM EDT
Nautical Twilight 5:03 AM EDT 9:25 PM EDT
Astronomical Twilight 4:25 AM EDT 10:04 PM EDT
Moon 4:14 AM EDT 6:35 PM EDT
Length of Visible Light 15h 10m
Length of Day
14h 12m
Tomorrow will be 1m 31s shorter.
Waning Crescent, 4% of the Moon is Illuminated
Today
Waning Crescent
Jul 26
New
Aug 3
First Quarter
Aug 10
Full
Aug 17
Last Quarter

Today's Extremes

State Highs State Lows

Community

WunderPhotos

Upload Photos

1,737,089 photos uploaded!

Nearby

Snow Depth

Station Depth Elevation
No new snow has been reported.

Earthquake Activity

City Distance Mag. Time & Date
No recent earthquake activity has been reported nearby.
Minimum magnitude displayed is 2.5.

Coastal Water Temperatures

Place Temperature
No Stations Reporting

Nearby Weather Stations

Station Location Temp. Heat Index Dew Point Humidity Wind Precip. Elev Updated Type
Conway - 35S, Conway, NC 80.3 °F 84 °F 70 °F 72% ESE  at  1.0 mph 0.00 in / hr 105 ft 2:33 PM EDT Normal
Ashley's Grove, Conway, NC 81.8 °F 89 °F 75 °F 81% NW  at  0.0 mph 0.00 in / hr 65 ft 2:33 PM EDT Rapid Fire
Aaron's Weather Service, Franklin, VA 79.7 °F 83 °F 72 °F 78% ENE  at  4.0 mph 0.00 in / hr 98 ft 2:33 PM EDT Rapid Fire
VADOT I-95_@_MP_0.5, Skippers, VA 81 °F 85 °F 73 °F 75% NNE  at  2 mph 0.00 in / hr 112 ft 1:44 PM EDT MADIS
Carrsville Fire Station, Carrsville, VA 78.6 °F 82 °F 73 °F 82% ENE  at  2.0 mph 0.00 in / hr 95 ft 2:30 PM EDT Normal

Show More Stations Show Fewer Stations